createdAt,value
2023-01-18T00:01:22.607Z,1.66
2023-01-18T00:03:51.016Z,1.68
2023-01-18T00:06:19.608Z,1.70
2023-01-18T00:08:48.005Z,1.71
2023-01-18T00:11:18.484Z,1.74
2023-01-18T00:13:48.234Z,1.77
2023-01-18T00:16:20.072Z,1.78
2023-01-18T00:18:53.749Z,1.78
2023-01-18T00:21:23.207Z,1.77
2023-01-18T00:23:51.541Z,1.76
2023-01-18T00:26:19.983Z,1.74
2023-01-18T00:28:48.329Z,1.74
2023-01-18T00:31:21.449Z,1.75
2023-01-18T00:33:50.647Z,1.77
2023-01-18T00:36:19.799Z,1.79
2023-01-18T00:38:52.171Z,1.82
2023-01-18T00:41:21.888Z,1.83
2023-01-18T00:43:51.646Z,1.85
2023-01-18T00:46:27.563Z,1.88
2023-01-18T00:48:57.335Z,1.89
2023-01-18T00:51:25.991Z,1.90
2023-01-18T00:53:54.307Z,1.90
2023-01-18T00:56:23.268Z,1.90
2023-01-18T00:58:51.738Z,1.90
2023-01-18T01:01:20.237Z,1.92
2023-01-18T01:04:07.709Z,1.92
2023-01-18T01:06:46.097Z,1.93
2023-01-18T01:09:25.015Z,1.95
2023-01-18T01:12:12.854Z,1.97
2023-01-18T01:15:04.639Z,2.01
2023-01-18T01:17:55.814Z,2.02
2023-01-18T01:20:44.424Z,2.05
2023-01-18T01:23:41.180Z,2.05
2023-01-18T01:26:11.728Z,2.04
2023-01-18T01:28:44.172Z,2.04
2023-01-18T01:31:15.545Z,2.04
2023-01-18T01:33:46.126Z,2.05
2023-01-18T01:36:18.526Z,2.06
2023-01-18T01:38:47.386Z,2.07
2023-01-18T01:41:29.709Z,2.08
2023-01-18T01:44:24.505Z,2.09
2023-01-18T01:46:58.638Z,2.09
2023-01-18T01:49:46.234Z,2.09
2023-01-18T01:52:22.560Z,2.09
2023-01-18T01:54:59.699Z,2.09
2023-01-18T01:57:55.856Z,2.08
2023-01-18T02:00:24.643Z,2.04
2023-01-18T02:03:03.539Z,2.03
2023-01-18T02:05:35.568Z,2.01
2023-01-18T02:08:04.350Z,2.01
2023-01-18T02:10:32.780Z,2.01
2023-01-18T02:13:01.553Z,1.99
2023-01-18T02:16:09.855Z,1.98
2023-01-18T02:19:13.605Z,1.97
2023-01-18T02:21:57.250Z,1.96
2023-01-18T02:24:44.078Z,1.97
2023-01-18T02:27:24.688Z,1.97
2023-01-18T02:30:32.480Z,1.97
2023-01-18T02:33:12.372Z,1.97
2023-01-18T02:35:57.823Z,1.98
2023-01-18T02:38:36.790Z,1.99
2023-01-18T02:41:52.150Z,2.01
2023-01-18T02:44:48.971Z,2.03
2023-01-18T02:47:17.864Z,2.05
2023-01-18T02:49:46.240Z,2.07
2023-01-18T02:52:47.606Z,2.10
2023-01-18T02:55:31.080Z,2.12
2023-01-18T02:58:09.710Z,2.15
2023-01-18T03:00:44.400Z,2.18
2023-01-18T03:03:13.722Z,2.20
2023-01-18T03:05:44.770Z,2.23
2023-01-18T03:08:51.307Z,2.24
2023-01-18T03:11:58.910Z,2.26
2023-01-18T03:14:40.886Z,2.27
2023-01-18T03:17:25.397Z,2.27
2023-01-18T03:20:07.939Z,2.28
2023-01-18T03:22:56.427Z,2.29
2023-01-18T03:25:37.849Z,2.32
2023-01-18T03:28:30.294Z,2.35
2023-01-18T03:31:22.285Z,2.36
2023-01-18T03:33:59.204Z,2.37
2023-01-18T03:36:33.100Z,2.38
2023-01-18T03:39:10.610Z,2.40
2023-01-18T03:41:48.866Z,2.42
2023-01-18T03:44:35.752Z,2.44
2023-01-18T03:47:06.156Z,2.45
2023-01-18T03:49:35.206Z,2.45
2023-01-18T03:52:37.664Z,2.46
2023-01-18T03:55:17.060Z,2.46
2023-01-18T03:57:54.060Z,2.48
2023-01-18T04:00:22.469Z,2.50
2023-01-18T04:02:50.910Z,2.52
2023-01-18T04:05:19.703Z,2.56
2023-01-18T04:07:48.432Z,2.59
2023-01-18T04:10:17.087Z,2.61
2023-01-18T04:12:45.485Z,2.63
2023-01-18T04:15:13.894Z,2.65
2023-01-18T04:17:42.215Z,2.68
2023-01-18T04:20:11.202Z,2.69
2023-01-18T04:22:39.490Z,2.71
2023-01-18T04:25:08.363Z,2.72
2023-01-18T04:27:36.696Z,2.73
2023-01-18T04:30:06.358Z,2.74
2023-01-18T04:32:34.746Z,2.75
2023-01-18T04:35:03.436Z,2.75
2023-01-18T04:37:34.643Z,2.76
2023-01-18T04:40:03.031Z,2.78
2023-01-18T04:42:31.408Z,2.78
2023-01-18T04:45:00.173Z,2.79
2023-01-18T04:47:29.157Z,2.82
2023-01-18T04:49:57.957Z,2.84
2023-01-18T04:52:26.923Z,2.86
2023-01-18T04:54:55.383Z,2.87
2023-01-18T04:57:23.815Z,2.87
2023-01-18T04:59:52.152Z,2.88
2023-01-18T05:02:20.602Z,2.89
2023-01-18T05:04:49.039Z,2.88
2023-01-18T05:07:17.447Z,2.89
2023-01-18T05:09:45.759Z,2.91
2023-01-18T05:12:14.052Z,2.92
2023-01-18T05:14:42.446Z,2.92
2023-01-18T05:17:10.912Z,2.92
2023-01-18T05:19:40.493Z,2.92
2023-01-18T05:22:08.919Z,2.92
2023-01-18T05:24:37.211Z,2.91
2023-01-18T05:27:06.052Z,2.90
2023-01-18T05:29:34.624Z,2.89
2023-01-18T05:32:03.006Z,2.87
2023-01-18T05:34:31.404Z,2.85
2023-01-18T05:36:59.968Z,2.84
2023-01-18T05:39:28.483Z,2.83
2023-01-18T05:41:58.761Z,2.81
2023-01-18T05:44:28.423Z,2.80
2023-01-18T05:46:57.699Z,2.78
2023-01-18T05:49:26.419Z,2.75
2023-01-18T05:51:55.352Z,2.73
2023-01-18T05:54:23.816Z,2.71
2023-01-18T05:56:52.176Z,2.69
2023-01-18T05:59:20.540Z,2.67
2023-01-18T06:01:48.934Z,2.65
2023-01-18T06:04:17.567Z,2.62
2023-01-18T06:06:46.256Z,2.62
2023-01-18T06:09:14.718Z,2.61
2023-01-18T06:11:43.075Z,2.61
2023-01-18T06:14:11.689Z,2.61
2023-01-18T06:16:40.171Z,2.63
2023-01-18T06:19:08.789Z,2.64
2023-01-18T06:21:37.337Z,2.67
2023-01-18T06:24:06.210Z,2.67
2023-01-18T06:26:34.760Z,2.67
2023-01-18T06:29:03.385Z,2.66
2023-01-18T06:31:31.780Z,2.65
2023-01-18T06:34:00.115Z,2.65
2023-01-18T06:36:29.839Z,2.65
2023-01-18T06:38:58.193Z,2.65
2023-01-18T06:41:26.525Z,2.64
2023-01-18T06:43:55.210Z,2.64
2023-01-18T06:46:23.526Z,2.64
2023-01-18T06:48:51.893Z,2.64
2023-01-18T06:51:22.032Z,2.63
2023-01-18T06:53:50.378Z,2.64
2023-01-18T06:56:18.674Z,2.64
2023-01-18T06:58:47.036Z,2.62
2023-01-18T07:01:15.546Z,2.62
2023-01-18T07:03:43.938Z,2.61
2023-01-18T07:06:12.515Z,2.62
2023-01-18T07:08:42.159Z,2.63
2023-01-18T07:11:13.041Z,2.64
2023-01-18T07:13:43.830Z,2.63
2023-01-18T07:16:17.572Z,2.63
2023-01-18T07:18:48.283Z,2.64
2023-01-18T07:21:18.152Z,2.64
2023-01-18T07:23:46.425Z,2.66
2023-01-18T07:26:17.126Z,2.69
2023-01-18T07:28:46.808Z,2.69
2023-01-18T07:31:16.947Z,2.70
2023-01-18T07:33:45.631Z,2.71
2023-01-18T07:36:14.101Z,2.73
2023-01-18T07:38:42.939Z,2.75
2023-01-18T07:41:14.402Z,2.76
2023-01-18T07:43:44.925Z,2.77
2023-01-18T07:46:20.623Z,2.80
2023-01-18T07:48:49.272Z,2.81
2023-01-18T07:51:17.576Z,2.84
2023-01-18T07:53:45.997Z,2.87
2023-01-18T07:56:17.481Z,2.89
2023-01-18T07:58:46.479Z,2.92
2023-01-18T08:01:18.361Z,2.94
2023-01-18T08:03:48.835Z,2.95
2023-01-18T08:06:26.629Z,2.99
2023-01-18T08:08:57.046Z,3.01
2023-01-18T08:11:25.814Z,3.04
2023-01-18T08:13:54.193Z,3.06
2023-01-18T08:16:22.730Z,3.10
2023-01-18T08:18:51.451Z,3.13
2023-01-18T08:21:19.882Z,3.17
2023-01-18T08:23:48.316Z,3.21
2023-01-18T08:26:16.691Z,3.24
2023-01-18T08:28:45.192Z,3.27
2023-01-18T08:31:19.128Z,3.30
2023-01-18T08:33:49.028Z,3.33
2023-01-18T08:36:21.788Z,3.35
2023-01-18T08:38:57.231Z,3.38
2023-01-18T08:41:28.940Z,3.39
2023-01-18T08:43:59.579Z,3.40
2023-01-18T08:46:28.628Z,3.42
2023-01-18T08:48:59.325Z,3.44
2023-01-18T08:51:27.968Z,3.46
2023-01-18T08:53:57.271Z,3.50
2023-01-18T08:56:27.077Z,3.53
2023-01-18T08:58:56.024Z,3.57
2023-01-18T09:01:24.832Z,3.59
2023-01-18T09:03:58.480Z,3.61
2023-01-18T09:06:32.035Z,3.63
2023-01-18T09:09:01.696Z,3.65
2023-01-18T09:11:30.165Z,3.66
2023-01-18T09:14:01.582Z,3.68
2023-01-18T09:16:31.771Z,3.68
2023-01-18T09:19:01.307Z,3.69
2023-01-18T09:21:29.810Z,3.72
2023-01-18T09:23:59.511Z,3.73
2023-01-18T09:26:30.325Z,3.74
2023-01-18T09:28:58.798Z,3.77
2023-01-18T09:31:28.263Z,3.77
2023-01-18T09:34:09.583Z,3.80
2023-01-18T09:36:46.173Z,3.81
2023-01-18T09:39:14.482Z,3.82
2023-01-18T09:41:49.612Z,3.83
2023-01-18T09:44:32.427Z,3.85
2023-01-18T09:47:25.870Z,3.88
2023-01-18T09:50:00.059Z,3.92
2023-01-18T09:53:12.473Z,3.93
2023-01-18T09:55:51.795Z,3.92
2023-01-18T09:58:43.797Z,3.91
2023-01-18T10:01:19.986Z,3.92
2023-01-18T10:04:18.892Z,3.96
2023-01-18T10:07:05.297Z,4.04
2023-01-18T10:09:40.510Z,4.12
2023-01-18T10:12:33.748Z,4.19
2023-01-18T10:15:17.426Z,4.24
2023-01-18T10:17:47.331Z,4.25
2023-01-18T10:20:24.649Z,4.25
2023-01-18T10:23:01.100Z,4.23
2023-01-18T10:25:39.211Z,4.20
2023-01-18T10:28:25.287Z,4.20
2023-01-18T10:31:37.192Z,4.21
2023-01-18T10:34:18.268Z,4.19
2023-01-18T10:36:56.426Z,4.19
2023-01-18T10:39:34.695Z,4.19
2023-01-18T10:42:13.393Z,4.19
2023-01-18T10:44:41.723Z,4.16
2023-01-18T10:47:12.038Z,4.13
2023-01-18T10:49:43.935Z,4.10
2023-01-18T10:52:29.749Z,4.04
2023-01-18T10:55:01.724Z,3.97
2023-01-18T10:57:36.995Z,3.89
2023-01-18T11:00:12.449Z,3.82
2023-01-18T11:02:45.216Z,3.76
2023-01-18T11:05:27.658Z,3.72
2023-01-18T11:08:25.385Z,3.69
2023-01-18T11:11:48.474Z,3.65
2023-01-18T11:14:30.689Z,3.60
2023-01-18T11:17:11.465Z,3.58
2023-01-18T11:19:41.768Z,3.54
2023-01-18T11:22:16.972Z,3.53
2023-01-18T11:24:45.860Z,3.52
2023-01-18T11:27:23.166Z,3.54
2023-01-18T11:29:51.960Z,3.56
2023-01-18T11:32:28.145Z,3.61
2023-01-18T11:35:00.078Z,3.65
2023-01-18T11:37:37.636Z,3.67
2023-01-18T11:40:29.443Z,3.69
2023-01-18T11:43:24.954Z,3.72
2023-01-18T11:46:05.963Z,3.75
2023-01-18T11:49:11.572Z,3.78
2023-01-18T11:51:51.557Z,3.79
2023-01-18T11:54:38.548Z,3.80
2023-01-18T11:57:10.307Z,3.83
2023-01-18T11:59:45.703Z,3.85
2023-01-18T12:02:32.667Z,3.87
2023-01-18T12:05:52.952Z,3.90
2023-01-18T12:09:05.965Z,3.93
2023-01-18T12:12:18.524Z,3.95
2023-01-18T12:15:29.197Z,3.97
2023-01-18T12:18:42.354Z,4.00
2023-01-18T12:21:22.328Z,4.03
2023-01-18T12:24:13.038Z,4.06
2023-01-18T12:27:05.579Z,4.06
2023-01-18T12:29:58.222Z,4.05
2023-01-18T12:32:50.534Z,4.07
2023-01-18T12:35:38.575Z,4.10
2023-01-18T12:38:24.304Z,4.12
2023-01-18T12:41:18.211Z,4.15
2023-01-18T12:44:25.497Z,4.16
2023-01-18T12:47:35.118Z,4.19
2023-01-18T12:50:16.599Z,4.19
2023-01-18T12:52:53.566Z,4.18
2023-01-18T12:55:25.662Z,4.16
2023-01-18T12:57:59.975Z,4.15
2023-01-18T13:00:35.393Z,4.13
2023-01-18T13:03:11.906Z,4.11
2023-01-18T13:05:57.980Z,4.11
2023-01-18T13:08:53.750Z,4.12
2023-01-18T13:11:30.776Z,4.11
2023-01-18T13:14:17.465Z,4.11
2023-01-18T13:17:05.425Z,4.10
2023-01-18T13:19:44.464Z,4.08
2023-01-18T13:22:35.751Z,4.04
2023-01-18T13:25:42.044Z,4.01
2023-01-18T13:28:18.293Z,3.98
2023-01-18T13:31:02.003Z,3.96
2023-01-18T13:33:45.522Z,3.92
2023-01-18T13:36:19.402Z,3.89
2023-01-18T13:38:58.292Z,3.85
2023-01-18T13:41:31.135Z,3.82
2023-01-18T13:44:01.502Z,3.81
2023-01-18T13:46:35.360Z,3.81
2023-01-18T13:49:38.697Z,3.79
2023-01-18T13:52:33.940Z,3.78
2023-01-18T13:55:24.931Z,3.77
2023-01-18T13:57:55.519Z,3.75
2023-01-18T14:00:26.065Z,3.73
2023-01-18T14:03:15.541Z,3.73
2023-01-18T14:05:46.615Z,3.74
2023-01-18T14:08:30.699Z,3.75
2023-01-18T14:11:11.061Z,3.76
2023-01-18T14:13:45.328Z,3.77
2023-01-18T14:16:26.012Z,3.78
2023-01-18T14:19:02.088Z,3.78
2023-01-18T14:21:52.260Z,3.79
2023-01-18T14:24:47.595Z,3.80
2023-01-18T14:27:25.038Z,3.80
2023-01-18T14:30:16.806Z,3.81
2023-01-18T14:32:59.134Z,3.81
2023-01-18T14:35:27.776Z,3.81
2023-01-18T14:38:18.849Z,3.81
2023-01-18T14:40:51.410Z,3.81
2023-01-18T14:43:30.777Z,3.81
2023-01-18T14:46:21.424Z,3.82
2023-01-18T14:48:55.683Z,3.83
2023-01-18T14:51:28.149Z,3.84
2023-01-18T14:54:02.081Z,3.85
2023-01-18T14:56:39.910Z,3.87
2023-01-18T14:59:33.328Z,3.87
2023-01-18T15:02:20.419Z,3.87
2023-01-18T15:04:49.573Z,3.87
2023-01-18T15:07:33.962Z,3.88
2023-01-18T15:10:03.562Z,3.89
2023-01-18T15:12:32.976Z,3.89
2023-01-18T15:15:43.400Z,3.89
2023-01-18T15:18:19.537Z,3.90
2023-01-18T15:21:04.976Z,3.90
2023-01-18T15:23:36.649Z,3.90
2023-01-18T15:26:06.247Z,3.91
2023-01-18T15:28:35.128Z,3.92
2023-01-18T15:31:15.115Z,3.92
2023-01-18T15:33:44.918Z,3.91
2023-01-18T15:36:14.187Z,3.91
2023-01-18T15:38:42.862Z,3.90
2023-01-18T15:41:14.853Z,3.90
2023-01-18T15:43:46.082Z,3.89
2023-01-18T15:46:17.218Z,3.89
2023-01-18T15:48:56.417Z,3.88
2023-01-18T15:51:45.037Z,3.88
2023-01-18T15:54:19.674Z,3.86
2023-01-18T15:56:48.730Z,3.85
2023-01-18T15:59:26.232Z,3.85
2023-01-18T16:02:15.929Z,3.83
2023-01-18T16:04:45.526Z,3.83
2023-01-18T16:07:43.447Z,3.81
2023-01-18T16:10:17.827Z,3.74
2023-01-18T16:12:47.012Z,3.67
2023-01-18T16:15:30.632Z,3.59
2023-01-18T16:18:06.415Z,3.55
2023-01-18T16:20:36.083Z,3.51
2023-01-18T16:23:19.760Z,3.47
2023-01-18T16:25:53.342Z,3.44
2023-01-18T16:28:23.121Z,3.42
2023-01-18T16:30:53.616Z,3.44
2023-01-18T16:33:22.239Z,3.46
2023-01-18T16:35:50.966Z,3.46
2023-01-18T16:38:20.394Z,3.47
2023-01-18T16:40:51.079Z,3.46
2023-01-18T16:43:19.943Z,3.46
2023-01-18T16:45:51.428Z,3.48
2023-01-18T16:48:24.309Z,3.50
2023-01-18T16:50:55.878Z,3.52
2023-01-18T16:53:24.227Z,3.53
2023-01-18T16:56:18.535Z,3.54
2023-01-18T16:58:47.180Z,3.57
2023-01-18T17:01:16.399Z,3.57
2023-01-18T17:03:44.937Z,3.55
2023-01-18T17:06:22.562Z,3.52
2023-01-18T17:08:50.911Z,3.52
2023-01-18T17:11:19.243Z,3.53
2023-01-18T17:13:47.795Z,3.54
2023-01-18T17:16:19.092Z,3.50
2023-01-18T17:18:48.171Z,3.46
2023-01-18T17:21:16.515Z,3.40
2023-01-18T17:23:45.363Z,3.35
2023-01-18T17:26:17.732Z,3.33
2023-01-18T17:28:46.142Z,3.32
2023-01-18T17:31:14.504Z,3.31
2023-01-18T17:33:43.789Z,3.32
2023-01-18T17:36:12.151Z,3.30
2023-01-18T17:38:40.636Z,3.28
2023-01-18T17:41:27.774Z,3.28
2023-01-18T17:43:57.181Z,3.28
2023-01-18T17:46:25.708Z,3.30
2023-01-18T17:48:54.109Z,3.32
2023-01-18T17:51:22.744Z,3.33
2023-01-18T17:53:51.183Z,3.36
2023-01-18T17:56:19.547Z,3.35
2023-01-18T17:58:49.316Z,3.36
2023-01-18T18:01:19.021Z,3.37
2023-01-18T18:03:50.715Z,3.36
2023-01-18T18:06:30.048Z,3.35
2023-01-18T18:09:01.481Z,3.32
2023-01-18T18:11:29.952Z,3.31
2023-01-18T18:13:59.047Z,3.30
2023-01-18T18:16:27.815Z,3.31
2023-01-18T18:18:58.135Z,3.32
2023-01-18T18:21:27.255Z,3.33
2023-01-18T18:23:55.651Z,3.31
2023-01-18T18:26:24.011Z,3.32
2023-01-18T18:28:52.581Z,3.32
2023-01-18T18:31:21.623Z,3.32
2023-01-18T18:33:49.973Z,3.32
2023-01-18T18:36:18.284Z,3.31
2023-01-18T18:38:46.685Z,3.31
2023-01-18T18:41:15.025Z,3.30
2023-01-18T18:43:43.315Z,3.28
2023-01-18T18:46:11.706Z,3.25
2023-01-18T18:48:40.163Z,3.21
2023-01-18T18:51:08.566Z,3.18
2023-01-18T18:53:39.727Z,3.15
2023-01-18T18:56:11.849Z,3.14
2023-01-18T18:58:40.890Z,3.12
2023-01-18T19:01:26.361Z,3.11
2023-01-18T19:03:58.776Z,3.10
2023-01-18T19:06:27.903Z,3.11
2023-01-18T19:08:57.330Z,3.12
2023-01-18T19:11:25.827Z,3.12
2023-01-18T19:13:55.781Z,3.12
2023-01-18T19:16:24.287Z,3.12
2023-01-18T19:18:52.702Z,3.12
2023-01-18T19:21:20.980Z,3.12
2023-01-18T19:23:49.331Z,3.10
2023-01-18T19:26:18.347Z,3.07
2023-01-18T19:28:47.234Z,3.05
2023-01-18T19:31:15.746Z,3.03
2023-01-18T19:33:44.066Z,3.03
2023-01-18T19:36:15.927Z,3.04
2023-01-18T19:38:48.028Z,3.06
2023-01-18T19:41:19.059Z,3.07
2023-01-18T19:43:50.387Z,3.08
2023-01-18T19:46:20.215Z,3.06
2023-01-18T19:48:48.761Z,3.05
2023-01-18T19:51:22.384Z,3.03
2023-01-18T19:53:56.295Z,3.01
2023-01-18T19:56:25.709Z,2.99
2023-01-18T19:58:54.079Z,2.99
2023-01-18T20:01:35.272Z,2.97
2023-01-18T20:04:06.696Z,2.95
2023-01-18T20:06:38.374Z,2.92
2023-01-18T20:09:18.576Z,2.90
2023-01-18T20:11:49.170Z,2.89
2023-01-18T20:14:18.533Z,2.89
2023-01-18T20:16:48.004Z,2.92
2023-01-18T20:19:17.691Z,2.93
2023-01-18T20:21:46.469Z,2.92
2023-01-18T20:24:14.905Z,2.92
2023-01-18T20:26:43.767Z,2.92
2023-01-18T20:29:13.179Z,2.91
2023-01-18T20:31:44.586Z,2.90
2023-01-18T20:34:16.766Z,2.88
2023-01-18T20:36:46.100Z,2.85
2023-01-18T20:39:14.742Z,2.85
2023-01-18T20:41:43.660Z,2.85
2023-01-18T20:44:12.409Z,2.84
2023-01-18T20:46:40.723Z,2.84
2023-01-18T20:49:09.130Z,2.83
2023-01-18T20:51:40.289Z,2.83
2023-01-18T20:54:08.669Z,2.85
2023-01-18T20:56:37.052Z,2.86
2023-01-18T20:59:05.367Z,2.87
2023-01-18T21:01:34.066Z,2.89
2023-01-18T21:04:04.686Z,2.90
2023-01-18T21:06:33.645Z,2.91
2023-01-18T21:09:02.382Z,2.92
2023-01-18T21:11:32.288Z,2.93
2023-01-18T21:14:00.668Z,2.93
2023-01-18T21:16:29.055Z,2.93
2023-01-18T21:18:59.379Z,2.93
2023-01-18T21:21:29.355Z,2.95
2023-01-18T21:23:58.447Z,2.96
2023-01-18T21:26:27.892Z,2.95
2023-01-18T21:28:56.472Z,2.93
2023-01-18T21:31:25.137Z,2.92
2023-01-18T21:33:54.904Z,2.92
2023-01-18T21:36:23.306Z,2.92
2023-01-18T21:38:51.862Z,2.93
2023-01-18T21:41:39.163Z,2.93
2023-01-18T21:44:26.215Z,2.93
2023-01-18T21:46:54.615Z,2.90
2023-01-18T21:52:48.982Z,2.82
2023-01-18T21:55:18.625Z,2.80
2023-01-18T21:58:06.987Z,2.77
2023-01-18T22:00:40.067Z,2.74
2023-01-18T22:03:09.808Z,2.71
2023-01-18T22:05:40.927Z,2.67
2023-01-18T22:08:10.111Z,2.60
2023-01-18T22:10:38.616Z,2.58
2023-01-18T22:13:07.203Z,2.54
2023-01-18T22:15:35.611Z,2.51
2023-01-18T22:18:04.253Z,2.50
2023-01-18T22:20:32.671Z,2.48
2023-01-18T22:23:00.969Z,2.46
2023-01-18T22:25:29.304Z,2.44
2023-01-18T22:27:58.040Z,2.43
2023-01-18T22:30:26.619Z,2.42
2023-01-18T22:32:54.900Z,2.41
2023-01-18T22:35:23.211Z,2.40
2023-01-18T22:37:51.529Z,2.36
2023-01-18T22:40:19.851Z,2.31
2023-01-18T22:42:48.139Z,2.24
2023-01-18T22:45:16.420Z,2.17
2023-01-18T22:47:45.165Z,2.10
2023-01-18T22:50:13.459Z,2.04
2023-01-18T22:52:41.785Z,1.97
2023-01-18T22:55:10.371Z,1.90
2023-01-18T22:57:38.742Z,1.84
2023-01-18T23:00:09.848Z,1.77
2023-01-18T23:02:38.331Z,1.73
2023-01-18T23:05:07.506Z,1.67
2023-01-18T23:07:35.799Z,1.62
2023-01-18T23:10:04.532Z,1.57
2023-01-18T23:12:32.924Z,1.50
2023-01-18T23:15:19.791Z,1.43
2023-01-18T23:17:48.115Z,1.37
2023-01-18T23:20:16.517Z,1.32
2023-01-18T23:22:45.766Z,1.29
2023-01-18T23:25:14.097Z,1.27
2023-01-18T23:27:42.476Z,1.26
2023-01-18T23:30:11.658Z,1.25
2023-01-18T23:32:40.192Z,1.24
2023-01-18T23:35:08.806Z,1.22
2023-01-18T23:37:37.098Z,1.21
2023-01-18T23:40:25.140Z,1.19
2023-01-18T23:43:12.584Z,1.18
2023-01-18T23:46:01.392Z,1.18
2023-01-18T23:48:48.370Z,1.17
2023-01-18T23:51:35.125Z,1.16
2023-01-18T23:54:18.763Z,1.16
2023-01-18T23:56:47.788Z,1.17
2023-01-18T23:59:16.139Z,1.16
